sensor_id;sensor_type;location;lat;lon;timestamp;P1;durP1;ratioP1;P2;durP2;ratioP2
74512;SDS011;62992;52.052;8.550;2023-03-21T00:00:23;23.05;;;7.63;;
74512;SDS011;62992;52.052;8.550;2023-03-21T00:03:08;19.45;;;7.30;;
74512;SDS011;62992;52.052;8.550;2023-03-21T00:05:52;17.45;;;7.60;;
74512;SDS011;62992;52.052;8.550;2023-03-21T00:08:37;16.05;;;7.40;;
74512;SDS011;62992;52.052;8.550;2023-03-21T00:11:21;16.35;;;7.35;;
74512;SDS011;62992;52.052;8.550;2023-03-21T00:14:06;14.25;;;6.95;;
74512;SDS011;62992;52.052;8.550;2023-03-21T00:16:51;15.88;;;7.68;;
74512;SDS011;62992;52.052;8.550;2023-03-21T00:19:35;19.98;;;7.40;;
74512;SDS011;62992;52.052;8.550;2023-03-21T00:22:21;14.80;;;6.57;;
74512;SDS011;62992;52.052;8.550;2023-03-21T00:25:05;15.93;;;7.10;;
74512;SDS011;62992;52.052;8.550;2023-03-21T00:27:50;16.65;;;7.25;;
74512;SDS011;62992;52.052;8.550;2023-03-21T00:30:34;17.55;;;7.28;;
74512;SDS011;62992;52.052;8.550;2023-03-21T00:33:18;17.83;;;8.00;;
74512;SDS011;62992;52.052;8.550;2023-03-21T00:36:03;15.60;;;7.70;;
74512;SDS011;62992;52.052;8.550;2023-03-21T00:38:48;14.37;;;7.37;;
74512;SDS011;62992;52.052;8.550;2023-03-21T00:41:32;15.68;;;6.70;;
74512;SDS011;62992;52.052;8.550;2023-03-21T00:44:16;14.10;;;7.45;;
74512;SDS011;62992;52.052;8.550;2023-03-21T00:47:00;14.30;;;7.50;;
74512;SDS011;62992;52.052;8.550;2023-03-21T00:49:48;17.33;;;7.03;;
74512;SDS011;62992;52.052;8.550;2023-03-21T00:52:32;17.15;;;7.63;;
74512;SDS011;62992;52.052;8.550;2023-03-21T00:55:17;15.55;;;7.82;;
74512;SDS011;62992;52.052;8.550;2023-03-21T01:00:46;21.23;;;7.80;;
74512;SDS011;62992;52.052;8.550;2023-03-21T01:03:30;15.35;;;8.18;;
74512;SDS011;62992;52.052;8.550;2023-03-21T01:06:24;18.95;;;8.50;;
74512;SDS011;62992;52.052;8.550;2023-03-21T01:09:14;18.48;;;9.05;;
74512;SDS011;62992;52.052;8.550;2023-03-21T01:12:00;21.63;;;10.23;;
74512;SDS011;62992;52.052;8.550;2023-03-21T01:14:46;22.52;;;10.00;;
74512;SDS011;62992;52.052;8.550;2023-03-21T01:17:30;20.23;;;9.88;;
74512;SDS011;62992;52.052;8.550;2023-03-21T01:20:14;20.85;;;9.25;;
74512;SDS011;62992;52.052;8.550;2023-03-21T01:22:58;22.10;;;9.15;;
74512;SDS011;62992;52.052;8.550;2023-03-21T01:25:43;33.03;;;10.75;;
74512;SDS011;62992;52.052;8.550;2023-03-21T01:28:32;25.40;;;10.73;;
74512;SDS011;62992;52.052;8.550;2023-03-21T01:31:17;21.92;;;10.30;;
74512;SDS011;62992;52.052;8.550;2023-03-21T01:34:02;23.40;;;10.82;;
74512;SDS011;62992;52.052;8.550;2023-03-21T01:36:46;21.63;;;10.07;;
74512;SDS011;62992;52.052;8.550;2023-03-21T01:39:31;25.65;;;10.77;;
74512;SDS011;62992;52.052;8.550;2023-03-21T01:42:17;25.73;;;10.38;;
74512;SDS011;62992;52.052;8.550;2023-03-21T01:45:04;22.87;;;10.57;;
74512;SDS011;62992;52.052;8.550;2023-03-21T01:48:10;24.95;;;10.48;;
74512;SDS011;62992;52.052;8.550;2023-03-21T01:50:55;22.23;;;11.00;;
74512;SDS011;62992;52.052;8.550;2023-03-21T01:53:41;19.38;;;10.07;;
74512;SDS011;62992;52.052;8.550;2023-03-21T01:56:27;21.23;;;10.98;;
74512;SDS011;62992;52.052;8.550;2023-03-21T01:59:17;28.42;;;11.77;;
74512;SDS011;62992;52.052;8.550;2023-03-21T02:02:06;22.10;;;10.57;;
74512;SDS011;62992;52.052;8.550;2023-03-21T02:04:54;27.90;;;10.85;;
74512;SDS011;62992;52.052;8.550;2023-03-21T02:07:41;24.00;;;11.13;;
74512;SDS011;62992;52.052;8.550;2023-03-21T02:10:26;21.50;;;11.15;;
74512;SDS011;62992;52.052;8.550;2023-03-21T02:13:11;26.43;;;12.13;;
74512;SDS011;62992;52.052;8.550;2023-03-21T02:21:59;22.85;;;11.15;;
74512;SDS011;62992;52.052;8.550;2023-03-21T02:27:55;28.35;;;12.98;;
74512;SDS011;62992;52.052;8.550;2023-03-21T02:30:53;25.70;;;12.52;;
74512;SDS011;62992;52.052;8.550;2023-03-21T02:40:06;26.27;;;12.48;;
74512;SDS011;62992;52.052;8.550;2023-03-21T02:46:04;26.10;;;13.18;;
74512;SDS011;62992;52.052;8.550;2023-03-21T02:49:02;29.40;;;13.40;;
74512;SDS011;62992;52.052;8.550;2023-03-21T02:51:59;35.05;;;13.00;;
74512;SDS011;62992;52.052;8.550;2023-03-21T02:57:31;29.92;;;13.10;;
74512;SDS011;62992;52.052;8.550;2023-03-21T03:00:17;23.35;;;12.95;;
74512;SDS011;62992;52.052;8.550;2023-03-21T03:03:04;28.15;;;13.88;;
74512;SDS011;62992;52.052;8.550;2023-03-21T03:05:49;28.48;;;13.82;;
74512;SDS011;62992;52.052;8.550;2023-03-21T03:21:07;34.20;;;14.15;;
74512;SDS011;62992;52.052;8.550;2023-03-21T03:24:00;26.20;;;13.52;;
74512;SDS011;62992;52.052;8.550;2023-03-21T03:29:39;32.88;;;14.32;;
74512;SDS011;62992;52.052;8.550;2023-03-21T03:32:27;32.38;;;14.60;;
74512;SDS011;62992;52.052;8.550;2023-03-21T03:35:19;28.55;;;13.85;;
74512;SDS011;62992;52.052;8.550;2023-03-21T03:38:05;27.08;;;13.00;;
74512;SDS011;62992;52.052;8.550;2023-03-21T03:40:52;27.10;;;13.27;;
74512;SDS011;62992;52.052;8.550;2023-03-21T03:43:47;28.33;;;14.73;;
74512;SDS011;62992;52.052;8.550;2023-03-21T03:49:50;28.73;;;13.57;;
74512;SDS011;62992;52.052;8.550;2023-03-21T03:53:07;26.67;;;13.13;;
74512;SDS011;62992;52.052;8.550;2023-03-21T03:56:13;30.73;;;13.57;;
74512;SDS011;62992;52.052;8.550;2023-03-21T03:58:57;28.85;;;12.70;;
74512;SDS011;62992;52.052;8.550;2023-03-21T04:01:44;26.70;;;13.18;;
74512;SDS011;62992;52.052;8.550;2023-03-21T04:04:28;25.58;;;12.05;;
74512;SDS011;62992;52.052;8.550;2023-03-21T04:07:14;32.92;;;12.52;;
74512;SDS011;62992;52.052;8.550;2023-03-21T04:09:58;27.02;;;13.10;;
74512;SDS011;62992;52.052;8.550;2023-03-21T04:12:42;29.88;;;13.13;;
74512;SDS011;62992;52.052;8.550;2023-03-21T04:15:26;28.23;;;12.80;;
74512;SDS011;62992;52.052;8.550;2023-03-21T04:18:10;28.05;;;12.70;;
74512;SDS011;62992;52.052;8.550;2023-03-21T04:20:55;30.55;;;13.15;;
74512;SDS011;62992;52.052;8.550;2023-03-21T04:23:40;24.80;;;11.57;;
74512;SDS011;62992;52.052;8.550;2023-03-21T04:26:24;31.27;;;11.55;;
74512;SDS011;62992;52.052;8.550;2023-03-21T04:29:13;22.08;;;11.40;;
74512;SDS011;62992;52.052;8.550;2023-03-21T04:31:57;23.25;;;10.52;;
74512;SDS011;62992;52.052;8.550;2023-03-21T04:34:42;25.27;;;11.82;;
74512;SDS011;62992;52.052;8.550;2023-03-21T04:37:32;21.77;;;10.40;;
74512;SDS011;62992;52.052;8.550;2023-03-21T04:40:17;22.23;;;10.38;;
74512;SDS011;62992;52.052;8.550;2023-03-21T04:43:02;27.55;;;10.82;;
74512;SDS011;62992;52.052;8.550;2023-03-21T04:45:46;31.27;;;11.32;;
74512;SDS011;62992;52.052;8.550;2023-03-21T04:48:30;21.33;;;10.85;;
74512;SDS011;62992;52.052;8.550;2023-03-21T04:51:15;20.83;;;11.52;;
74512;SDS011;62992;52.052;8.550;2023-03-21T04:53:59;20.15;;;11.00;;
74512;SDS011;62992;52.052;8.550;2023-03-21T04:56:43;25.02;;;10.40;;
74512;SDS011;62992;52.052;8.550;2023-03-21T04:59:27;20.70;;;10.23;;
74512;SDS011;62992;52.052;8.550;2023-03-21T05:02:11;20.85;;;10.75;;
74512;SDS011;62992;52.052;8.550;2023-03-21T05:04:56;21.38;;;10.32;;
74512;SDS011;62992;52.052;8.550;2023-03-21T05:07:40;25.67;;;10.82;;
74512;SDS011;62992;52.052;8.550;2023-03-21T05:10:24;26.73;;;12.05;;
74512;SDS011;62992;52.052;8.550;2023-03-21T05:13:08;24.90;;;12.52;;
74512;SDS011;62992;52.052;8.550;2023-03-21T05:15:52;26.67;;;10.45;;
74512;SDS011;62992;52.052;8.550;2023-03-21T05:18:36;25.95;;;10.88;;
74512;SDS011;62992;52.052;8.550;2023-03-21T05:21:21;23.90;;;10.77;;
74512;SDS011;62992;52.052;8.550;2023-03-21T05:24:13;22.02;;;10.63;;
74512;SDS011;62992;52.052;8.550;2023-03-21T05:27:00;24.77;;;10.50;;
74512;SDS011;62992;52.052;8.550;2023-03-21T05:29:45;24.52;;;11.02;;
74512;SDS011;62992;52.052;8.550;2023-03-21T05:32:29;26.55;;;10.90;;
74512;SDS011;62992;52.052;8.550;2023-03-21T05:35:13;23.48;;;10.27;;
74512;SDS011;62992;52.052;8.550;2023-03-21T05:37:57;22.70;;;9.93;;
74512;SDS011;62992;52.052;8.550;2023-03-21T05:40:45;20.67;;;9.93;;
74512;SDS011;62992;52.052;8.550;2023-03-21T05:43:33;23.33;;;11.25;;
74512;SDS011;62992;52.052;8.550;2023-03-21T05:46:16;23.55;;;10.80;;
74512;SDS011;62992;52.052;8.550;2023-03-21T05:49:01;21.75;;;10.68;;
74512;SDS011;62992;52.052;8.550;2023-03-21T05:51:45;19.33;;;10.65;;
74512;SDS011;62992;52.052;8.550;2023-03-21T05:54:29;25.85;;;11.00;;
74512;SDS011;62992;52.052;8.550;2023-03-21T05:57:13;29.10;;;11.15;;
74512;SDS011;62992;52.052;8.550;2023-03-21T05:59:57;25.63;;;10.70;;
74512;SDS011;62992;52.052;8.550;2023-03-21T06:02:41;21.65;;;10.90;;
74512;SDS011;62992;52.052;8.550;2023-03-21T06:05:26;20.80;;;10.20;;
74512;SDS011;62992;52.052;8.550;2023-03-21T06:08:10;18.15;;;10.15;;
74512;SDS011;62992;52.052;8.550;2023-03-21T06:10:54;23.92;;;10.60;;
74512;SDS011;62992;52.052;8.550;2023-03-21T06:13:38;20.63;;;9.65;;
74512;SDS011;62992;52.052;8.550;2023-03-21T06:16:22;19.23;;;10.57;;
74512;SDS011;62992;52.052;8.550;2023-03-21T06:19:06;17.65;;;10.05;;
74512;SDS011;62992;52.052;8.550;2023-03-21T06:21:51;24.33;;;10.57;;
74512;SDS011;62992;52.052;8.550;2023-03-21T06:24:35;18.05;;;9.70;;
74512;SDS011;62992;52.052;8.550;2023-03-21T06:27:19;21.15;;;10.07;;
74512;SDS011;62992;52.052;8.550;2023-03-21T06:30:03;22.05;;;10.90;;
74512;SDS011;62992;52.052;8.550;2023-03-21T06:32:48;29.17;;;12.90;;
74512;SDS011;62992;52.052;8.550;2023-03-21T06:35:32;25.15;;;10.27;;
74512;SDS011;62992;52.052;8.550;2023-03-21T06:38:16;23.30;;;10.65;;
74512;SDS011;62992;52.052;8.550;2023-03-21T06:41:00;23.02;;;10.95;;
74512;SDS011;62992;52.052;8.550;2023-03-21T06:43:47;23.33;;;10.55;;
74512;SDS011;62992;52.052;8.550;2023-03-21T06:46:31;23.85;;;10.52;;
74512;SDS011;62992;52.052;8.550;2023-03-21T06:49:16;23.70;;;10.70;;
74512;SDS011;62992;52.052;8.550;2023-03-21T06:52:01;18.33;;;9.48;;
74512;SDS011;62992;52.052;8.550;2023-03-21T06:54:45;20.17;;;10.35;;
74512;SDS011;62992;52.052;8.550;2023-03-21T06:57:29;21.70;;;9.98;;
74512;SDS011;62992;52.052;8.550;2023-03-21T07:00:14;25.25;;;10.70;;
74512;SDS011;62992;52.052;8.550;2023-03-21T07:02:58;22.90;;;10.18;;
74512;SDS011;62992;52.052;8.550;2023-03-21T07:05:43;21.60;;;9.82;;
74512;SDS011;62992;52.052;8.550;2023-03-21T07:08:27;22.17;;;10.75;;
74512;SDS011;62992;52.052;8.550;2023-03-21T07:11:11;22.80;;;10.30;;
74512;SDS011;62992;52.052;8.550;2023-03-21T07:13:55;23.83;;;11.40;;
74512;SDS011;62992;52.052;8.550;2023-03-21T07:16:40;23.42;;;11.63;;
74512;SDS011;62992;52.052;8.550;2023-03-21T07:19:24;20.83;;;10.13;;
74512;SDS011;62992;52.052;8.550;2023-03-21T07:22:09;24.08;;;10.43;;
74512;SDS011;62992;52.052;8.550;2023-03-21T07:24:53;20.58;;;9.98;;
74512;SDS011;62992;52.052;8.550;2023-03-21T07:27:37;18.08;;;10.43;;
74512;SDS011;62992;52.052;8.550;2023-03-21T07:30:21;22.40;;;10.00;;
74512;SDS011;62992;52.052;8.550;2023-03-21T07:33:05;16.17;;;9.02;;
74512;SDS011;62992;52.052;8.550;2023-03-21T07:35:50;19.63;;;9.37;;
74512;SDS011;62992;52.052;8.550;2023-03-21T07:38:36;21.73;;;8.93;;
74512;SDS011;62992;52.052;8.550;2023-03-21T07:41:20;24.52;;;9.88;;
74512;SDS011;62992;52.052;8.550;2023-03-21T07:44:04;16.05;;;9.07;;
74512;SDS011;62992;52.052;8.550;2023-03-21T07:46:49;23.88;;;10.50;;
74512;SDS011;62992;52.052;8.550;2023-03-21T07:49:33;21.50;;;9.55;;
74512;SDS011;62992;52.052;8.550;2023-03-21T07:52:18;18.85;;;10.20;;
74512;SDS011;62992;52.052;8.550;2023-03-21T07:55:02;22.33;;;10.27;;
74512;SDS011;62992;52.052;8.550;2023-03-21T07:57:50;19.30;;;9.27;;
74512;SDS011;62992;52.052;8.550;2023-03-21T08:00:34;18.67;;;9.63;;
74512;SDS011;62992;52.052;8.550;2023-03-21T08:03:18;23.02;;;9.98;;
74512;SDS011;62992;52.052;8.550;2023-03-21T08:06:02;22.88;;;10.35;;
74512;SDS011;62992;52.052;8.550;2023-03-21T08:08:47;20.63;;;9.82;;
74512;SDS011;62992;52.052;8.550;2023-03-21T08:11:31;23.23;;;12.18;;
74512;SDS011;62992;52.052;8.550;2023-03-21T08:14:15;25.58;;;10.32;;
74512;SDS011;62992;52.052;8.550;2023-03-21T08:16:59;24.00;;;9.80;;
74512;SDS011;62992;52.052;8.550;2023-03-21T08:19:43;20.40;;;9.35;;
74512;SDS011;62992;52.052;8.550;2023-03-21T08:22:27;22.38;;;9.15;;
74512;SDS011;62992;52.052;8.550;2023-03-21T08:25:12;21.30;;;8.95;;
74512;SDS011;62992;52.052;8.550;2023-03-21T08:30:42;19.02;;;8.40;;
74512;SDS011;62992;52.052;8.550;2023-03-21T08:33:26;17.80;;;8.15;;
74512;SDS011;62992;52.052;8.550;2023-03-21T08:36:10;21.60;;;8.70;;
74512;SDS011;62992;52.052;8.550;2023-03-21T08:38:54;19.05;;;8.90;;
74512;SDS011;62992;52.052;8.550;2023-03-21T08:41:46;24.98;;;9.57;;
74512;SDS011;62992;52.052;8.550;2023-03-21T08:44:31;21.40;;;8.98;;
74512;SDS011;62992;52.052;8.550;2023-03-21T08:47:15;22.35;;;9.48;;
74512;SDS011;62992;52.052;8.550;2023-03-21T08:49:59;20.25;;;9.75;;
74512;SDS011;62992;52.052;8.550;2023-03-21T08:52:43;17.17;;;9.15;;
74512;SDS011;62992;52.052;8.550;2023-03-21T08:55:27;18.25;;;8.50;;
74512;SDS011;62992;52.052;8.550;2023-03-21T08:58:12;22.00;;;9.80;;
74512;SDS011;62992;52.052;8.550;2023-03-21T09:00:56;18.67;;;10.07;;
74512;SDS011;62992;52.052;8.550;2023-03-21T09:03:40;23.90;;;10.32;;
74512;SDS011;62992;52.052;8.550;2023-03-21T09:06:25;23.50;;;10.37;;
74512;SDS011;62992;52.052;8.550;2023-03-21T09:09:10;21.55;;;10.05;;
74512;SDS011;62992;52.052;8.550;2023-03-21T09:11:55;19.90;;;9.55;;
74512;SDS011;62992;52.052;8.550;2023-03-21T09:14:39;24.40;;;9.85;;
74512;SDS011;62992;52.052;8.550;2023-03-21T09:17:24;22.50;;;9.63;;
74512;SDS011;62992;52.052;8.550;2023-03-21T09:20:09;20.65;;;9.20;;
74512;SDS011;62992;52.052;8.550;2023-03-21T09:23:01;19.42;;;9.68;;
74512;SDS011;62992;52.052;8.550;2023-03-21T09:25:45;21.73;;;10.20;;
74512;SDS011;62992;52.052;8.550;2023-03-21T09:28:30;20.10;;;9.02;;
74512;SDS011;62992;52.052;8.550;2023-03-21T09:31:15;22.77;;;10.48;;
74512;SDS011;62992;52.052;8.550;2023-03-21T09:34:05;19.17;;;8.43;;
74512;SDS011;62992;52.052;8.550;2023-03-21T09:36:50;20.55;;;9.18;;
74512;SDS011;62992;52.052;8.550;2023-03-21T09:39:37;20.73;;;9.07;;
74512;SDS011;62992;52.052;8.550;2023-03-21T09:45:35;18.80;;;8.93;;
74512;SDS011;62992;52.052;8.550;2023-03-21T09:48:34;22.40;;;9.20;;
74512;SDS011;62992;52.052;8.550;2023-03-21T09:51:41;18.63;;;9.40;;
74512;SDS011;62992;52.052;8.550;2023-03-21T09:54:36;22.20;;;9.80;;
74512;SDS011;62992;52.052;8.550;2023-03-21T09:57:30;23.13;;;9.48;;
74512;SDS011;62992;52.052;8.550;2023-03-21T10:00:26;19.55;;;9.25;;
74512;SDS011;62992;52.052;8.550;2023-03-21T10:03:22;20.05;;;8.80;;
74512;SDS011;62992;52.052;8.550;2023-03-21T10:06:11;18.90;;;8.93;;
74512;SDS011;62992;52.052;8.550;2023-03-21T10:09:02;17.67;;;8.50;;
74512;SDS011;62992;52.052;8.550;2023-03-21T10:11:57;25.05;;;9.70;;
74512;SDS011;62992;52.052;8.550;2023-03-21T10:14:49;21.38;;;9.10;;
74512;SDS011;62992;52.052;8.550;2023-03-21T10:17:37;20.48;;;9.05;;
74512;SDS011;62992;52.052;8.550;2023-03-21T10:20:33;18.67;;;8.27;;
74512;SDS011;62992;52.052;8.550;2023-03-21T10:23:19;20.67;;;9.10;;
74512;SDS011;62992;52.052;8.550;2023-03-21T10:26:07;19.20;;;8.25;;
74512;SDS011;62992;52.052;8.550;2023-03-21T10:28:51;16.35;;;8.35;;
74512;SDS011;62992;52.052;8.550;2023-03-21T10:31:39;17.08;;;7.95;;
74512;SDS011;62992;52.052;8.550;2023-03-21T10:34:39;15.20;;;7.68;;
74512;SDS011;62992;52.052;8.550;2023-03-21T10:37:26;17.88;;;8.18;;
74512;SDS011;62992;52.052;8.550;2023-03-21T10:40:14;14.27;;;7.55;;
74512;SDS011;62992;52.052;8.550;2023-03-21T10:43:16;17.23;;;9.00;;
74512;SDS011;62992;52.052;8.550;2023-03-21T10:46:21;16.95;;;8.25;;
74512;SDS011;62992;52.052;8.550;2023-03-21T10:49:14;15.98;;;9.07;;
74512;SDS011;62992;52.052;8.550;2023-03-21T10:52:01;16.05;;;8.63;;
74512;SDS011;62992;52.052;8.550;2023-03-21T10:54:48;18.67;;;8.05;;
74512;SDS011;62992;52.052;8.550;2023-03-21T10:57:46;15.75;;;8.10;;
74512;SDS011;62992;52.052;8.550;2023-03-21T11:00:35;14.77;;;8.40;;
74512;SDS011;62992;52.052;8.550;2023-03-21T11:03:26;19.65;;;8.70;;
74512;SDS011;62992;52.052;8.550;2023-03-21T11:09:14;15.98;;;7.93;;
74512;SDS011;62992;52.052;8.550;2023-03-21T11:12:01;15.82;;;8.00;;
74512;SDS011;62992;52.052;8.550;2023-03-21T11:18:19;17.10;;;7.93;;
74512;SDS011;62992;52.052;8.550;2023-03-21T11:21:06;18.10;;;8.82;;
74512;SDS011;62992;52.052;8.550;2023-03-21T11:23:55;17.73;;;8.68;;
74512;SDS011;62992;52.052;8.550;2023-03-21T11:26:39;13.70;;;8.05;;
74512;SDS011;62992;52.052;8.550;2023-03-21T11:29:29;22.65;;;8.98;;
74512;SDS011;62992;52.052;8.550;2023-03-21T11:35:05;20.70;;;8.75;;
74512;SDS011;62992;52.052;8.550;2023-03-21T11:38:01;16.98;;;7.93;;
74512;SDS011;62992;52.052;8.550;2023-03-21T11:40:53;15.55;;;7.43;;
74512;SDS011;62992;52.052;8.550;2023-03-21T11:43:41;16.75;;;7.72;;
74512;SDS011;62992;52.052;8.550;2023-03-21T11:46:38;15.90;;;8.68;;
74512;SDS011;62992;52.052;8.550;2023-03-21T11:49:23;15.95;;;8.18;;
74512;SDS011;62992;52.052;8.550;2023-03-21T11:55:08;11.50;;;7.15;;
74512;SDS011;62992;52.052;8.550;2023-03-21T11:58:12;11.88;;;6.80;;
74512;SDS011;62992;52.052;8.550;2023-03-21T12:04:41;15.63;;;8.05;;
74512;SDS011;62992;52.052;8.550;2023-03-21T12:25:24;18.20;;;8.50;;
74512;SDS011;62992;52.052;8.550;2023-03-21T12:49:33;15.32;;;7.78;;
74512;SDS011;62992;52.052;8.550;2023-03-21T12:52:28;20.30;;;7.88;;
74512;SDS011;62992;52.052;8.550;2023-03-21T12:55:19;15.60;;;6.88;;
74512;SDS011;62992;52.052;8.550;2023-03-21T12:58:09;17.40;;;9.23;;
74512;SDS011;62992;52.052;8.550;2023-03-21T13:01:00;19.02;;;8.57;;
74512;SDS011;62992;52.052;8.550;2023-03-21T13:03:56;14.68;;;7.97;;
74512;SDS011;62992;52.052;8.550;2023-03-21T13:06:50;14.20;;;6.70;;
74512;SDS011;62992;52.052;8.550;2023-03-21T13:09:38;13.57;;;6.88;;
74512;SDS011;62992;52.052;8.550;2023-03-21T13:12:35;12.85;;;6.20;;
74512;SDS011;62992;52.052;8.550;2023-03-21T13:15:39;13.77;;;6.93;;
74512;SDS011;62992;52.052;8.550;2023-03-21T13:18:56;13.85;;;6.57;;
74512;SDS011;62992;52.052;8.550;2023-03-21T13:24:49;11.07;;;6.38;;
74512;SDS011;62992;52.052;8.550;2023-03-21T13:27:40;12.55;;;6.18;;
74512;SDS011;62992;52.052;8.550;2023-03-21T13:30:26;8.83;;;6.57;;
74512;SDS011;62992;52.052;8.550;2023-03-21T13:36:06;13.32;;;6.30;;
74512;SDS011;62992;52.052;8.550;2023-03-21T13:38:52;11.55;;;6.22;;
74512;SDS011;62992;52.052;8.550;2023-03-21T13:41:42;9.55;;;5.43;;
74512;SDS011;62992;52.052;8.550;2023-03-21T13:44:31;10.20;;;5.00;;
74512;SDS011;62992;52.052;8.550;2023-03-21T13:47:30;9.45;;;5.45;;
74512;SDS011;62992;52.052;8.550;2023-03-21T13:50:24;11.82;;;5.60;;
74512;SDS011;62992;52.052;8.550;2023-03-21T13:53:18;8.05;;;4.50;;
74512;SDS011;62992;52.052;8.550;2023-03-21T13:59:01;10.30;;;5.35;;
74512;SDS011;62992;52.052;8.550;2023-03-21T14:01:59;7.30;;;4.45;;
74512;SDS011;62992;52.052;8.550;2023-03-21T14:04:59;8.98;;;4.93;;
74512;SDS011;62992;52.052;8.550;2023-03-21T14:07:47;7.47;;;4.30;;
74512;SDS011;62992;52.052;8.550;2023-03-21T14:10:37;8.35;;;4.72;;
74512;SDS011;62992;52.052;8.550;2023-03-21T14:13:25;10.15;;;4.18;;
74512;SDS011;62992;52.052;8.550;2023-03-21T14:16:11;8.97;;;4.40;;
74512;SDS011;62992;52.052;8.550;2023-03-21T14:19:03;10.48;;;4.47;;
74512;SDS011;62992;52.052;8.550;2023-03-21T14:21:49;9.73;;;4.57;;
74512;SDS011;62992;52.052;8.550;2023-03-21T14:24:36;9.70;;;4.45;;
74512;SDS011;62992;52.052;8.550;2023-03-21T14:27:21;8.23;;;4.78;;
74512;SDS011;62992;52.052;8.550;2023-03-21T14:30:09;6.18;;;3.75;;
74512;SDS011;62992;52.052;8.550;2023-03-21T14:33:03;10.82;;;4.78;;
74512;SDS011;62992;52.052;8.550;2023-03-21T14:35:50;7.78;;;4.30;;
74512;SDS011;62992;52.052;8.550;2023-03-21T14:38:36;5.78;;;3.88;;
74512;SDS011;62992;52.052;8.550;2023-03-21T14:41:23;9.20;;;4.22;;
74512;SDS011;62992;52.052;8.550;2023-03-21T14:44:10;5.22;;;4.20;;
74512;SDS011;62992;52.052;8.550;2023-03-21T14:47:28;8.70;;;4.78;;
74512;SDS011;62992;52.052;8.550;2023-03-21T14:50:14;8.00;;;4.28;;
74512;SDS011;62992;52.052;8.550;2023-03-21T14:52:59;6.20;;;4.45;;
74512;SDS011;62992;52.052;8.550;2023-03-21T14:55:44;7.57;;;4.25;;
74512;SDS011;62992;52.052;8.550;2023-03-21T14:58:32;7.10;;;3.90;;
74512;SDS011;62992;52.052;8.550;2023-03-21T15:01:23;7.03;;;4.82;;
74512;SDS011;62992;52.052;8.550;2023-03-21T15:04:17;7.43;;;4.22;;
74512;SDS011;62992;52.052;8.550;2023-03-21T15:07:01;6.30;;;4.55;;
74512;SDS011;62992;52.052;8.550;2023-03-21T15:12:35;8.63;;;4.05;;
74512;SDS011;62992;52.052;8.550;2023-03-21T15:15:19;6.32;;;4.15;;
74512;SDS011;62992;52.052;8.550;2023-03-21T15:18:05;6.88;;;3.80;;
74512;SDS011;62992;52.052;8.550;2023-03-21T15:20:51;6.30;;;3.45;;
74512;SDS011;62992;52.052;8.550;2023-03-21T15:23:39;6.38;;;4.10;;
74512;SDS011;62992;52.052;8.550;2023-03-21T15:26:25;7.72;;;3.10;;
74512;SDS011;62992;52.052;8.550;2023-03-21T15:29:10;9.45;;;3.58;;
74512;SDS011;62992;52.052;8.550;2023-03-21T15:31:56;8.02;;;3.35;;
74512;SDS011;62992;52.052;8.550;2023-03-21T15:34:42;5.03;;;2.73;;
74512;SDS011;62992;52.052;8.550;2023-03-21T15:37:27;8.10;;;3.17;;
74512;SDS011;62992;52.052;8.550;2023-03-21T15:40:16;7.70;;;3.22;;
74512;SDS011;62992;52.052;8.550;2023-03-21T15:46:02;5.57;;;2.80;;
74512;SDS011;62992;52.052;8.550;2023-03-21T15:49:16;5.50;;;2.60;;
74512;SDS011;62992;52.052;8.550;2023-03-21T15:52:04;3.22;;;2.40;;
74512;SDS011;62992;52.052;8.550;2023-03-21T15:54:57;4.20;;;2.72;;
74512;SDS011;62992;52.052;8.550;2023-03-21T15:57:41;5.78;;;2.70;;
74512;SDS011;62992;52.052;8.550;2023-03-21T16:03:25;7.55;;;2.40;;
74512;SDS011;62992;52.052;8.550;2023-03-21T16:07:13;3.65;;;2.00;;
74512;SDS011;62992;52.052;8.550;2023-03-21T16:09:42;5.40;;;2.00;;
74512;SDS011;62992;52.052;8.550;2023-03-21T16:12:28;5.55;;;2.08;;
74512;SDS011;62992;52.052;8.550;2023-03-21T16:15:12;4.45;;;2.40;;
74512;SDS011;62992;52.052;8.550;2023-03-21T16:17:57;6.10;;;2.55;;
74512;SDS011;62992;52.052;8.550;2023-03-21T16:20:44;4.35;;;2.50;;
74512;SDS011;62992;52.052;8.550;2023-03-21T16:23:29;8.05;;;2.90;;
74512;SDS011;62992;52.052;8.550;2023-03-21T16:26:15;5.60;;;2.40;;
74512;SDS011;62992;52.052;8.550;2023-03-21T16:29:01;5.20;;;2.33;;
74512;SDS011;62992;52.052;8.550;2023-03-21T16:31:46;4.60;;;2.47;;
74512;SDS011;62992;52.052;8.550;2023-03-21T16:34:31;8.70;;;2.30;;
74512;SDS011;62992;52.052;8.550;2023-03-21T16:37:15;5.07;;;2.60;;
74512;SDS011;62992;52.052;8.550;2023-03-21T16:39:59;6.93;;;2.80;;
74512;SDS011;62992;52.052;8.550;2023-03-21T16:42:43;6.13;;;2.88;;
74512;SDS011;62992;52.052;8.550;2023-03-21T16:45:28;4.75;;;2.35;;
74512;SDS011;62992;52.052;8.550;2023-03-21T16:48:13;6.30;;;2.22;;
74512;SDS011;62992;52.052;8.550;2023-03-21T16:50:59;5.78;;;2.50;;
74512;SDS011;62992;52.052;8.550;2023-03-21T16:53:43;3.92;;;2.10;;
74512;SDS011;62992;52.052;8.550;2023-03-21T16:56:29;3.63;;;2.10;;
74512;SDS011;62992;52.052;8.550;2023-03-21T16:59:20;9.20;;;2.58;;
74512;SDS011;62992;52.052;8.550;2023-03-21T17:02:10;4.30;;;2.33;;
74512;SDS011;62992;52.052;8.550;2023-03-21T17:04:55;5.03;;;2.30;;
74512;SDS011;62992;52.052;8.550;2023-03-21T17:07:40;4.65;;;2.35;;
74512;SDS011;62992;52.052;8.550;2023-03-21T17:13:12;4.10;;;2.30;;
74512;SDS011;62992;52.052;8.550;2023-03-21T17:15:57;5.50;;;2.65;;
74512;SDS011;62992;52.052;8.550;2023-03-21T17:18:41;4.85;;;2.70;;
74512;SDS011;62992;52.052;8.550;2023-03-21T17:21:27;9.13;;;3.90;;
74512;SDS011;62992;52.052;8.550;2023-03-21T17:24:12;5.70;;;2.83;;
74512;SDS011;62992;52.052;8.550;2023-03-21T17:26:56;5.43;;;2.63;;
74512;SDS011;62992;52.052;8.550;2023-03-21T17:29:41;5.10;;;3.22;;
74512;SDS011;62992;52.052;8.550;2023-03-21T17:32:26;6.25;;;3.40;;
74512;SDS011;62992;52.052;8.550;2023-03-21T17:35:10;4.72;;;2.70;;
74512;SDS011;62992;52.052;8.550;2023-03-21T17:37:55;5.28;;;2.85;;
74512;SDS011;62992;52.052;8.550;2023-03-21T17:40:41;4.60;;;2.75;;
74512;SDS011;62992;52.052;8.550;2023-03-21T17:43:25;4.10;;;2.65;;
74512;SDS011;62992;52.052;8.550;2023-03-21T17:46:12;5.32;;;2.85;;
74512;SDS011;62992;52.052;8.550;2023-03-21T17:48:58;6.20;;;3.10;;
74512;SDS011;62992;52.052;8.550;2023-03-21T17:51:42;5.57;;;3.17;;
74512;SDS011;62992;52.052;8.550;2023-03-21T17:54:29;4.90;;;2.58;;
74512;SDS011;62992;52.052;8.550;2023-03-21T17:57:13;5.15;;;3.05;;
74512;SDS011;62992;52.052;8.550;2023-03-21T17:59:57;5.70;;;2.97;;
74512;SDS011;62992;52.052;8.550;2023-03-21T18:02:41;5.00;;;2.65;;
74512;SDS011;62992;52.052;8.550;2023-03-21T18:05:26;6.93;;;3.42;;
74512;SDS011;62992;52.052;8.550;2023-03-21T18:08:10;8.63;;;4.50;;
74512;SDS011;62992;52.052;8.550;2023-03-21T18:10:54;8.65;;;4.25;;
74512;SDS011;62992;52.052;8.550;2023-03-21T18:13:39;8.90;;;4.65;;
74512;SDS011;62992;52.052;8.550;2023-03-21T18:16:24;7.13;;;3.55;;
74512;SDS011;62992;52.052;8.550;2023-03-21T18:19:11;6.80;;;3.38;;
74512;SDS011;62992;52.052;8.550;2023-03-21T18:21:56;6.32;;;3.90;;
74512;SDS011;62992;52.052;8.550;2023-03-21T18:24:40;5.90;;;3.45;;
74512;SDS011;62992;52.052;8.550;2023-03-21T18:27:24;6.75;;;4.35;;
74512;SDS011;62992;52.052;8.550;2023-03-21T18:30:13;7.50;;;3.95;;
74512;SDS011;62992;52.052;8.550;2023-03-21T18:32:58;10.02;;;4.93;;
74512;SDS011;62992;52.052;8.550;2023-03-21T18:35:43;6.50;;;4.03;;